Terminal Aerodrome Forecast
Issued by NWS Tulsa, OK

Home | Current Version | Previous Version | Text Only | Print | Product List | Glossary On
Versions: 1 2 3 4 5 6 7 8 9 10 11 12
000
FTUS44 KTSA 251120
TAFFSM
TAF
KFSM 251120Z 2512/2612 07004KT P6SM BKN070
     FM251800 08005KT P6SM VCTS SCT050CB BKN250 PROB30 2521/2524 3SM
      -TSRA BKN050CB
     FM260000 09003KT P6SM BKN250=

USA.gov is the U.S. government's official web portal to all federal, state and local government web resources and services.